WMGK1: Kansas River, Wamego, KS

                                SHEF ID:       WMGK1     Kansas River, Wamego, KS
STATION TYPE:

PRECIP STAGE STAGE(2) RIV-FLOW BAT-LOAD
in ft ft cfs volt
Ccp-Rev Ccp-Rev Ccp-Rev Ccp-Rev Ccp-Rev
(America/Chicago)
09/13 00:00 ---- 7.34 7.38 8131 12.40
09/13 01:00 ---- 7.41 7.44 8319 12.40
09/13 02:00 ---- 7.47 7.51 8481 12.37
09/13 03:00 ---- 7.54 7.57 8673 12.36
09/13 04:00 ---- 7.60 7.62 8838 12.34
09/13 05:00 ---- 7.63 7.67 8921 12.33
09/13 06:00 ---- 7.68 7.72 9061 12.31
09/13 07:00 ---- 7.72 7.76 9173 12.30
09/13 08:00 ---- 7.76 7.80 9286 12.30
09/13 09:00 ---- 7.79 7.83 9371 12.37
09/13 10:00 ---- 7.81 7.86 9428 13.05
09/13 11:00 ---- 7.86 7.89 9571 13.01
09/13 12:00 ---- 7.90 7.93 9686 12.92
09/13 13:00 ---- 7.91 7.94 9715 12.93
09/13 14:00 ---- 7.94 7.96 9802 12.86
09/13 15:00 ---- 7.96 8.00 9860 12.83
09/13 16:00 ---- 7.98 8.01 9918 12.82
09/13 17:00 ---- 8.00 8.03 9977 12.81
09/13 18:00 ---- 8.01 8.05 10006 12.73
09/13 19:00 ---- 8.04 8.08 10094 12.56
09/13 20:00 ---- 8.04 8.09 10094 12.48
09/13 21:00 ---- 8.05 8.09 10123 12.46
09/13 22:00 ---- 8.06 8.11 10153 12.44
09/13 23:00 ---- 8.07 8.11 10182 12.42
Data processed at Sun 14Sep2025 04:45 GMT

Parsing this webpage?

Checkout our new Data API! CWMSDataAPI (CDA)

Timeseries IDs (TSIDs)

TSIDs used from left to right in the data table
WGKS.Precip-Inc.Total.1Hour.1Hour.Ccp-Rev
WGKS.Stage.Inst.1Hour.0.Ccp-Rev
WGKS.Stage-Alt.Inst.1Hour.0.Ccp-Rev
WGKS.Flow.Inst.1Hour.0.Ccp-Rev
WGKS.Volt-Battery Load.Inst.1Hour.0.Ccp-Rev

                            

All information presented herein is the property of the government of the United States of America and may be revised or deleted at any time without prior notice. Dissemination of this information without the expressed written consent of the Public Affairs Office, Tulsa District U.S. Army Corps of Engineers is strictly prohibited. These data are gathered electronically and, as presented, have NOT undergone any form of quality control. These data are NOT guaranteed to be valid or correct.